createdAt,value
2022-10-06T00:01:03.120Z,0.88
2022-10-06T00:04:06.126Z,1.10
2022-10-06T00:07:07.998Z,0.88
2022-10-06T00:10:09.869Z,1.00
2022-10-06T00:13:11.552Z,0.82
2022-10-06T00:16:17.335Z,0.75
2022-10-06T00:19:20.559Z,0.88
2022-10-06T00:22:22.162Z,0.75
2022-10-06T00:25:25.572Z,1.23
2022-10-06T00:28:27.896Z,0.90
2022-10-06T00:31:30.089Z,0.63
2022-10-06T00:34:33.119Z,0.90
2022-10-06T00:37:38.123Z,1.10
2022-10-06T00:40:45.916Z,0.95
2022-10-06T00:43:52.066Z,1.02
2022-10-06T00:46:54.774Z,1.23
2022-10-06T00:49:59.109Z,0.98
2022-10-06T00:53:01.155Z,0.93
2022-10-06T00:56:02.828Z,0.75
2022-10-06T00:59:06.688Z,0.90
2022-10-06T01:02:13.012Z,1.02
2022-10-06T01:05:23.939Z,1.00
2022-10-06T01:08:26.347Z,0.93
2022-10-06T01:11:28.213Z,1.00
2022-10-06T01:14:30.615Z,0.63
2022-10-06T01:17:37.638Z,1.02
2022-10-06T01:20:44.122Z,0.90
2022-10-06T01:23:47.350Z,1.13
2022-10-06T01:26:51.513Z,0.80
2022-10-06T01:29:55.690Z,1.10
2022-10-06T01:32:57.433Z,0.93
2022-10-06T01:35:59.902Z,1.30
2022-10-06T01:39:03.028Z,1.33
2022-10-06T01:42:05.008Z,1.10
2022-10-06T01:45:08.477Z,0.82
2022-10-06T01:48:10.254Z,1.00
2022-10-06T01:51:14.277Z,1.20
2022-10-06T01:54:17.421Z,1.15
2022-10-06T01:57:21.200Z,1.20
2022-10-06T02:00:23.175Z,0.95
2022-10-06T02:03:24.893Z,1.30
2022-10-06T02:06:26.561Z,1.10
2022-10-06T02:09:29.590Z,1.20
2022-10-06T02:12:31.781Z,1.20
2022-10-06T02:15:34.816Z,1.20
2022-10-06T02:18:36.572Z,1.10
2022-10-06T02:21:38.787Z,1.23
2022-10-06T02:24:41.737Z,1.20
2022-10-06T02:27:43.911Z,1.20
2022-10-06T02:30:46.787Z,1.23
2022-10-06T02:33:48.519Z,1.00
2022-10-06T02:36:52.227Z,1.08
2022-10-06T02:39:55.431Z,1.20
2022-10-06T02:42:58.354Z,1.23
2022-10-06T02:46:02.707Z,1.17
2022-10-06T02:49:04.485Z,1.25
2022-10-06T02:52:06.142Z,1.05
2022-10-06T02:55:10.186Z,1.55
2022-10-06T02:58:11.883Z,1.60
2022-10-06T03:01:16.752Z,1.30
2022-10-06T03:04:18.891Z,1.33
2022-10-06T03:07:20.645Z,1.10
2022-10-06T03:10:23.713Z,0.82
2022-10-06T03:13:25.573Z,1.02
2022-10-06T03:16:30.956Z,0.77
2022-10-06T03:19:34.211Z,0.90
2022-10-06T03:22:35.853Z,0.70
2022-10-06T03:25:55.252Z,0.77
2022-10-06T03:28:57.867Z,0.82
2022-10-06T03:31:59.769Z,1.08
2022-10-06T03:35:01.430Z,0.70
2022-10-06T03:38:03.541Z,0.52
2022-10-06T03:41:09.095Z,0.32
2022-10-06T03:44:10.786Z,0.40
2022-10-06T03:47:17.476Z,0.65
2022-10-06T03:50:20.216Z,0.68
2022-10-06T03:53:25.642Z,0.50
2022-10-06T03:56:30.539Z,0.38
2022-10-06T03:59:34.281Z,0.35
2022-10-06T04:02:38.277Z,0.40
2022-10-06T04:05:40.005Z,0.40
2022-10-06T04:08:41.978Z,0.40
2022-10-06T04:11:45.220Z,0.75
2022-10-06T04:14:47.325Z,0.60
2022-10-06T04:17:48.972Z,0.30
2022-10-06T04:20:50.923Z,0.50
2022-10-06T04:23:53.225Z,0.38
2022-10-06T04:27:16.363Z,0.22
2022-10-06T04:30:22.293Z,0.30
2022-10-06T04:33:24.530Z,0.35
2022-10-06T04:36:29.142Z,0.32
2022-10-06T04:42:35.249Z,0.17
2022-10-06T04:45:39.288Z,0.30
2022-10-06T04:48:41.149Z,0.20
2022-10-06T04:51:42.863Z,0.28
2022-10-06T04:54:44.571Z,0.20
2022-10-06T04:57:48.269Z,0.20
2022-10-06T05:00:50.067Z,0.20
2022-10-06T05:03:54.136Z,0.20
2022-10-06T05:06:56.079Z,0.20
2022-10-06T05:09:57.832Z,0.20
2022-10-06T05:13:03.666Z,0.25
2022-10-06T05:16:08.137Z,0.30
2022-10-06T05:19:11.835Z,0.28
2022-10-06T05:22:14.849Z,0.20
2022-10-06T05:25:16.560Z,0.30
2022-10-06T05:28:20.203Z,0.10
2022-10-06T05:31:23.509Z,0.20
2022-10-06T05:34:25.533Z,0.20
2022-10-06T05:37:27.269Z,0.20
2022-10-06T05:40:29.502Z,0.50
2022-10-06T05:43:34.057Z,0.30
2022-10-06T05:46:36.193Z,0.25
2022-10-06T05:49:37.823Z,0.20
2022-10-06T05:52:40.413Z,0.20
2022-10-06T05:55:42.116Z,0.40
2022-10-06T05:58:47.534Z,0.40
2022-10-06T06:01:50.289Z,0.22
2022-10-06T06:05:05.952Z,0.30
2022-10-06T06:08:07.806Z,0.22
2022-10-06T06:11:10.346Z,0.68
2022-10-06T06:14:15.466Z,0.10
2022-10-06T06:17:17.511Z,0.30
2022-10-06T06:20:19.370Z,0.38
2022-10-06T06:23:21.079Z,0.20
2022-10-06T06:26:24.936Z,0.20
2022-10-06T06:29:28.578Z,0.50
2022-10-06T06:32:30.357Z,0.20
2022-10-06T06:35:34.289Z,0.32
2022-10-06T06:38:36.202Z,0.40
2022-10-06T06:41:40.496Z,0.50
2022-10-06T06:44:54.765Z,0.80
2022-10-06T06:48:03.347Z,0.20
2022-10-06T06:51:07.477Z,0.38
2022-10-06T06:54:11.025Z,0.43
2022-10-06T06:57:16.518Z,0.20
2022-10-06T07:00:23.252Z,0.40
2022-10-06T07:03:52.008Z,0.10
2022-10-06T07:06:53.416Z,0.35
2022-10-06T07:09:55.780Z,0.52
2022-10-06T07:12:59.758Z,0.20
2022-10-06T07:16:21.395Z,0.40
2022-10-06T07:19:42.307Z,0.38
2022-10-06T07:23:05.345Z,0.40
2022-10-06T07:26:07.241Z,0.30
2022-10-06T07:29:09.325Z,0.20
2022-10-06T07:32:12.969Z,0.20
2022-10-06T07:35:16.504Z,0.10
2022-10-06T07:38:18.612Z,0.30
2022-10-06T07:41:25.155Z,0.20
2022-10-06T07:44:30.220Z,0.20
2022-10-06T07:47:33.745Z,0.20
2022-10-06T07:50:38.024Z,0.40
2022-10-06T07:53:39.789Z,0.20
2022-10-06T07:59:52.342Z,0.25
2022-10-06T08:02:55.797Z,0.20
2022-10-06T08:05:59.759Z,0.65
2022-10-06T08:09:04.166Z,0.28
2022-10-06T08:12:25.886Z,0.80
2022-10-06T08:15:27.731Z,0.30
2022-10-06T08:18:47.202Z,0.35
2022-10-06T08:21:49.053Z,0.55
2022-10-06T08:25:05.159Z,0.20
2022-10-06T08:28:07.243Z,0.70
2022-10-06T08:31:11.582Z,0.60
2022-10-06T08:34:14.782Z,0.22
2022-10-06T08:37:20.320Z,0.30
2022-10-06T08:40:23.029Z,0.08
2022-10-06T08:43:26.156Z,0.40
2022-10-06T08:46:34.791Z,0.30
2022-10-06T08:49:40.893Z,0.30
2022-10-06T08:52:51.437Z,0.43
2022-10-06T08:56:00.422Z,0.43
2022-10-06T08:59:04.404Z,0.40
2022-10-06T09:02:21.951Z,0.40
2022-10-06T09:05:26.633Z,0.25
2022-10-06T09:11:46.810Z,0.75
2022-10-06T09:14:55.304Z,0.35
2022-10-06T09:18:02.291Z,0.50
2022-10-06T09:21:12.253Z,0.50
2022-10-06T09:24:17.453Z,0.28
2022-10-06T09:27:21.867Z,0.30
2022-10-06T09:30:24.255Z,0.30
2022-10-06T09:33:32.015Z,0.45
2022-10-06T09:37:01.697Z,0.93
2022-10-06T09:40:33.715Z,0.68
2022-10-06T09:43:35.436Z,0.45
2022-10-06T09:46:41.722Z,0.40
2022-10-06T09:49:44.029Z,0.40
2022-10-06T09:53:21.869Z,0.47
2022-10-06T09:56:23.821Z,0.35
2022-10-06T09:59:35.058Z,0.38
2022-10-06T10:02:40.914Z,0.43
2022-10-06T10:05:48.252Z,0.47
2022-10-06T10:08:51.345Z,1.10
2022-10-06T10:12:30.858Z,0.22
2022-10-06T10:15:40.373Z,0.28
2022-10-06T10:18:46.805Z,0.32
2022-10-06T10:21:48.525Z,0.40
2022-10-06T10:25:01.077Z,0.30
2022-10-06T10:28:09.644Z,0.10
2022-10-06T10:31:18.710Z,0.22
2022-10-06T10:34:39.951Z,0.30
2022-10-06T10:37:47.354Z,0.40
2022-10-06T10:40:55.807Z,0.30
2022-10-06T10:44:09.930Z,0.45
2022-10-06T10:47:17.878Z,0.10
2022-10-06T10:50:27.511Z,0.25
2022-10-06T10:53:40.226Z,0.20
2022-10-06T10:56:49.089Z,0.15
2022-10-06T10:59:58.693Z,0.35
2022-10-06T11:03:01.565Z,0.20
2022-10-06T11:06:21.398Z,0.05
2022-10-06T11:09:28.927Z,0.28
2022-10-06T11:12:54.220Z,0.32
2022-10-06T11:16:23.223Z,0.45
2022-10-06T11:19:37.482Z,0.30
2022-10-06T11:22:45.094Z,0.30
2022-10-06T11:25:55.575Z,0.30
2022-10-06T11:32:16.596Z,0.30
2022-10-06T11:35:21.344Z,0.20
2022-10-06T11:38:27.163Z,0.30
2022-10-06T11:41:34.480Z,0.40
2022-10-06T11:44:42.618Z,0.30
2022-10-06T11:48:13.627Z,0.40
2022-10-06T11:51:33.422Z,0.32
2022-10-06T11:54:47.617Z,0.50
2022-10-06T11:58:29.753Z,0.30
2022-10-06T12:01:55.755Z,0.35
2022-10-06T12:08:55.905Z,0.40
2022-10-06T12:12:01.296Z,0.50
2022-10-06T12:17:08.508Z,0.32
2022-10-06T12:19:18.655Z,0.30
2022-10-06T12:22:26.246Z,0.40
2022-10-06T12:25:34.717Z,0.20
2022-10-06T12:28:40.984Z,0.40
2022-10-06T12:31:50.679Z,0.40
2022-10-06T12:35:01.316Z,0.40
2022-10-06T12:38:05.815Z,0.10
2022-10-06T12:41:10.257Z,0.43
2022-10-06T12:44:23.136Z,0.30
2022-10-06T12:47:34.729Z,0.30
2022-10-06T12:50:38.849Z,0.40
2022-10-06T12:53:49.553Z,0.10
2022-10-06T12:56:58.970Z,0.20
2022-10-06T13:00:00.891Z,0.40
2022-10-06T13:03:06.154Z,0.40
2022-10-06T13:06:09.587Z,0.45
2022-10-06T13:09:14.306Z,0.30
2022-10-06T13:12:21.599Z,0.25
2022-10-06T13:15:25.341Z,0.20
2022-10-06T13:18:27.906Z,0.20
2022-10-06T13:21:31.642Z,0.08
2022-10-06T13:24:34.546Z,0.40
2022-10-06T13:27:36.575Z,0.20
2022-10-06T13:30:39.034Z,0.38
2022-10-06T13:33:42.930Z,0.20
2022-10-06T13:36:48.773Z,0.30
2022-10-06T13:39:50.490Z,0.22
2022-10-06T13:42:52.157Z,0.15
2022-10-06T13:45:54.411Z,0.40
2022-10-06T13:49:00.696Z,0.45
2022-10-06T13:52:15.078Z,0.22
2022-10-06T13:55:20.643Z,0.30
2022-10-06T13:58:26.910Z,0.30
2022-10-06T14:01:30.007Z,0.50
2022-10-06T14:04:34.697Z,0.30
2022-10-06T14:07:44.411Z,0.22
2022-10-06T14:10:49.432Z,0.30
2022-10-06T14:13:55.042Z,0.10
2022-10-06T14:16:57.786Z,0.22
2022-10-06T14:19:59.626Z,0.40
2022-10-06T14:23:32.983Z,0.13
2022-10-06T14:26:34.683Z,0.20
2022-10-06T14:29:37.873Z,0.32
2022-10-06T14:32:40.107Z,0.20
2022-10-06T14:35:43.467Z,0.30
2022-10-06T14:38:48.664Z,0.35
2022-10-06T14:41:50.387Z,0.20
2022-10-06T14:44:52.094Z,0.20
2022-10-06T14:47:53.801Z,0.10
2022-10-06T14:50:57.645Z,0.40
2022-10-06T14:54:00.894Z,0.40
2022-10-06T14:57:02.591Z,0.47
2022-10-06T15:00:05.509Z,0.20
2022-10-06T15:03:07.201Z,0.20
2022-10-06T15:06:29.447Z,0.30
2022-10-06T15:09:32.927Z,0.47
2022-10-06T15:12:34.574Z,0.20
2022-10-06T15:15:36.765Z,0.50
2022-10-06T15:18:42.602Z,0.20
2022-10-06T15:21:45.583Z,1.30
2022-10-06T15:24:51.247Z,0.30
2022-10-06T15:28:11.473Z,2.58
2022-10-06T15:31:13.251Z,0.55
2022-10-06T15:34:15.017Z,0.57
2022-10-06T15:37:19.871Z,0.22
2022-10-06T15:40:22.972Z,0.25
2022-10-06T15:43:44.577Z,0.20
2022-10-06T15:46:49.220Z,0.25
2022-10-06T15:49:51.172Z,0.20
2022-10-06T15:52:52.866Z,0.40
2022-10-06T15:55:58.918Z,0.28
2022-10-06T15:59:00.758Z,0.20
2022-10-06T16:02:05.039Z,0.30
2022-10-06T16:08:08.713Z,0.40
2022-10-06T16:11:11.712Z,0.30
2022-10-06T16:14:14.317Z,0.15
2022-10-06T16:17:17.408Z,0.13
2022-10-06T16:20:19.067Z,0.20
2022-10-06T16:23:20.839Z,0.30
2022-10-06T16:26:24.681Z,0.20
2022-10-06T16:29:27.525Z,0.30
2022-10-06T16:32:29.357Z,0.45
2022-10-06T16:35:31.062Z,0.60
2022-10-06T16:38:32.934Z,0.45
2022-10-06T16:41:36.092Z,0.38
2022-10-06T16:44:37.869Z,0.40
2022-10-06T16:47:39.620Z,0.38
2022-10-06T16:50:41.450Z,0.30
2022-10-06T16:53:44.741Z,0.30
2022-10-06T16:56:51.678Z,0.60
2022-10-06T16:59:53.489Z,0.50
2022-10-06T17:02:55.305Z,0.45
2022-10-06T17:06:02.302Z,0.47
2022-10-06T17:09:03.963Z,0.30
2022-10-06T17:12:07.336Z,0.30
2022-10-06T17:15:09.468Z,0.60
2022-10-06T17:18:11.108Z,0.28
2022-10-06T17:21:39.707Z,0.57
2022-10-06T17:24:34.987Z,0.38
2022-10-06T17:27:41.960Z,0.55
2022-10-06T17:30:51.587Z,0.38
2022-10-06T17:33:53.807Z,0.30
2022-10-06T17:36:55.799Z,0.55
2022-10-06T17:39:57.422Z,0.22
2022-10-06T17:43:00.435Z,0.30
2022-10-06T17:46:04.500Z,0.20
2022-10-06T17:49:08.162Z,0.30
2022-10-06T17:52:09.915Z,0.35
2022-10-06T17:55:11.660Z,0.22
2022-10-06T17:58:18.565Z,0.45
2022-10-06T18:01:21.219Z,0.20
2022-10-06T18:04:23.639Z,0.10
2022-10-06T18:07:25.285Z,0.40
2022-10-06T18:10:45.615Z,0.38
2022-10-06T18:13:49.525Z,0.30
2022-10-06T18:16:57.457Z,0.20
2022-10-06T18:19:59.303Z,0.30
2022-10-06T18:23:01.037Z,0.55
2022-10-06T18:26:03.916Z,0.40
2022-10-06T18:29:07.560Z,0.40
2022-10-06T18:33:40.720Z,0.50
2022-10-06T18:38:55.345Z,0.57
2022-10-06T18:41:59.010Z,0.60
2022-10-06T18:45:20.445Z,0.47
2022-10-06T18:48:40.791Z,0.57
2022-10-06T18:51:44.382Z,1.08
2022-10-06T18:54:46.359Z,1.15
2022-10-06T18:57:48.092Z,1.10
2022-10-06T19:00:51.846Z,1.13
2022-10-06T19:03:54.945Z,1.25
2022-10-06T19:06:56.713Z,1.27
2022-10-06T19:09:59.053Z,1.70
2022-10-06T19:13:01.060Z,1.85
2022-10-06T19:16:04.288Z,1.75
2022-10-06T19:19:10.667Z,1.27
2022-10-06T19:22:14.112Z,1.58
2022-10-06T19:25:18.914Z,1.67
2022-10-06T19:28:20.832Z,1.35
2022-10-06T19:31:23.854Z,2.25
2022-10-06T19:34:26.447Z,2.53
2022-10-06T19:37:30.235Z,2.03
2022-10-06T19:40:32.027Z,2.10
2022-10-06T19:43:33.857Z,1.85
2022-10-06T19:46:37.559Z,0.95
2022-10-06T19:49:39.330Z,1.25
2022-10-06T19:52:41.302Z,0.85
2022-10-06T19:55:43.524Z,1.08
2022-10-06T19:58:45.357Z,0.82
2022-10-06T20:01:50.024Z,0.95
2022-10-06T20:04:51.879Z,1.13
2022-10-06T20:07:54.179Z,1.20
2022-10-06T20:11:01.823Z,0.60
2022-10-06T20:14:04.282Z,0.50
2022-10-06T20:17:07.760Z,0.20
2022-10-06T20:20:10.152Z,0.30
2022-10-06T20:23:12.365Z,1.00
2022-10-06T20:26:17.246Z,0.95
2022-10-06T20:29:21.233Z,1.05
2022-10-06T20:32:24.657Z,0.60
2022-10-06T20:35:26.341Z,1.00
2022-10-06T20:39:00.137Z,0.77
2022-10-06T20:42:02.196Z,0.93
2022-10-06T20:45:04.350Z,0.70
2022-10-06T20:48:07.430Z,0.85
2022-10-06T20:51:10.396Z,0.82
2022-10-06T20:54:13.255Z,0.60
2022-10-06T20:57:14.892Z,0.55
2022-10-06T21:00:18.042Z,0.50
2022-10-06T21:03:21.036Z,0.52
2022-10-06T21:06:24.003Z,0.40
2022-10-06T21:09:28.154Z,0.52
2022-10-06T21:12:29.847Z,0.52
2022-10-06T21:15:31.569Z,0.65
2022-10-06T21:18:34.669Z,0.60
2022-10-06T21:21:37.490Z,0.60
2022-10-06T21:24:39.133Z,0.85
2022-10-06T21:27:41.041Z,0.90
2022-10-06T21:30:44.133Z,0.95
2022-10-06T21:33:48.633Z,0.80
2022-10-06T21:36:50.463Z,0.93
2022-10-06T21:39:52.057Z,0.52
2022-10-06T21:42:53.681Z,0.50
2022-10-06T21:46:17.111Z,0.60
2022-10-06T21:49:19.952Z,0.93
2022-10-06T21:52:21.634Z,0.60
2022-10-06T21:55:23.286Z,0.30
2022-10-06T21:58:25.202Z,0.60
2022-10-06T22:01:28.373Z,0.38
2022-10-06T22:04:31.421Z,0.38
2022-10-06T22:07:33.039Z,0.35
2022-10-06T22:10:34.678Z,0.38
2022-10-06T22:13:36.310Z,0.40
2022-10-06T22:16:38.653Z,0.55
2022-10-06T22:19:41.618Z,1.13
2022-10-06T22:22:43.258Z,0.40
2022-10-06T22:25:45.032Z,0.25
2022-10-06T22:28:48.243Z,0.40
2022-10-06T22:31:50.022Z,0.40
2022-10-06T22:34:53.713Z,0.45
2022-10-06T22:37:55.285Z,0.45
2022-10-06T22:40:59.749Z,0.35
2022-10-06T22:44:01.435Z,0.35
2022-10-06T22:47:03.110Z,0.10
2022-10-06T22:50:07.424Z,0.30
2022-10-06T22:53:10.140Z,0.30
2022-10-06T22:56:12.265Z,0.40
2022-10-06T22:59:13.943Z,0.30
2022-10-06T23:02:16.247Z,0.20
2022-10-06T23:05:19.223Z,0.30
2022-10-06T23:08:20.853Z,0.50
2022-10-06T23:11:22.963Z,0.17
2022-10-06T23:14:24.525Z,0.85
2022-10-06T23:17:26.169Z,0.30
2022-10-06T23:20:29.195Z,0.30
2022-10-06T23:23:31.397Z,0.25
2022-10-06T23:26:33.224Z,0.20
2022-10-06T23:29:35.227Z,0.22
2022-10-06T23:32:37.475Z,0.20
2022-10-06T23:35:40.659Z,0.10
2022-10-06T23:38:42.399Z,0.65
2022-10-06T23:41:44.240Z,0.20
2022-10-06T23:44:45.985Z,0.32
2022-10-06T23:47:47.741Z,0.20
2022-10-06T23:50:59.042Z,0.30
2022-10-06T23:54:00.644Z,0.30
2022-10-06T23:57:02.285Z,0.15
